Time;durP1;ratioP1;P1;durP2;ratioP2;P2;SDS_P1;SDS_P2;PMS_P1;PMS_P2;Temp;Humidity;BMP_temperature;BMP_pressure;BME280_temperature;BME280_humidity;BME280_pressure;Samples;Min_cycle;Max_cycle;Signal;HPM_P1;HPM_P2
2021/03/31 00:01:36;;;;;;;33.10;17.52;;;11.30;56.60;10.40;102430.00;;;;4935800;28;20079;-79
2021/03/31 00:04:02;;;;;;;30.60;16.55;;;11.20;56.90;10.40;102437.00;;;;4920107;28;20056;-79
2021/03/31 00:06:28;;;;;;;33.10;16.90;;;11.30;55.90;10.40;102429.00;;;;4937965;29;20055;-79
2021/03/31 00:08:54;;;;;;;34.72;16.88;;;11.30;56.40;10.40;102428.00;;;;4915604;29;20061;-79
2021/03/31 00:11:20;;;;;;;38.53;18.33;;;11.30;56.70;10.40;102425.00;;;;4931772;28;20151;-79
2021/03/31 00:13:46;;;;;;;33.30;17.10;;;11.30;57.50;10.40;102418.00;;;;4937909;28;20094;-78
2021/03/31 00:16:13;;;;;;;38.63;18.33;;;11.80;56.50;10.50;102402.00;;;;4935461;28;20043;-78
2021/03/31 00:18:39;;;;;;;38.08;18.90;;;11.30;56.00;10.50;102403.00;;;;4939705;28;20437;-78
2021/03/31 00:21:05;;;;;;;36.90;18.13;;;11.30;55.10;10.50;102409.00;;;;4933806;29;20938;-79
2021/03/31 00:23:32;;;;;;;37.85;18.65;;;11.30;54.40;10.50;102405.00;;;;4937670;28;20055;-79
2021/03/31 00:25:59;;;;;;;42.67;19.17;;;11.30;55.00;10.50;102413.00;;;;4924789;29;20185;-78
2021/03/31 00:28:26;;;;;;;38.60;18.63;;;11.30;54.40;10.50;102401.00;;;;4920436;29;20114;-79
2021/03/31 00:30:54;;;;;;;40.65;19.85;;;11.30;54.50;10.50;102401.00;;;;4937052;28;20043;-79
2021/03/31 00:33:21;;;;;;;40.35;20.08;;;11.30;55.70;10.50;102402.00;;;;4921170;29;20051;-79
2021/03/31 00:35:47;;;;;;;39.58;19.95;;;11.30;54.40;10.40;102393.00;;;;4903062;29;20047;-79
2021/03/31 00:38:14;;;;;;;38.45;18.92;;;11.30;54.60;10.40;102400.00;;;;4931537;28;20045;-79
2021/03/31 00:40:42;;;;;;;36.15;18.17;;;11.30;55.80;10.40;102388.00;;;;4921869;29;20062;-78
2021/03/31 00:43:09;;;;;;;36.00;18.60;;;11.20;55.20;10.30;102371.00;;;;4919968;29;20051;-78
2021/03/31 00:45:36;;;;;;;33.35;17.35;;;;;10.30;102377.00;;;;4923051;28;20727;-79
2021/03/31 00:48:02;;;;;;;35.55;17.08;;;11.20;55.80;10.30;102374.00;;;;4907277;29;20047;-79
2021/03/31 00:50:28;;;;;;;37.83;19.08;;;11.10;55.40;10.30;102364.00;;;;4933733;29;20091;-78
2021/03/31 00:52:57;;;;;;;32.88;17.02;;;11.10;55.50;10.20;102365.00;;;;4936596;28;20039;-79
2021/03/31 00:55:27;;;;;;;34.72;17.95;;;11.10;55.80;10.10;102365.00;;;;4917556;29;20509;-79
2021/03/31 00:57:54;;;;;;;36.72;18.00;;;11.10;56.40;10.10;102362.00;;;;4938611;28;20127;-79
2021/03/31 01:00:21;;;;;;;40.20;17.88;;;11.00;55.70;10.10;102363.00;;;;4932544;28;20118;-79
2021/03/31 01:02:47;;;;;;;;;;;10.90;56.80;10.00;102349.00;;;;4938811;28;20039;-79
2021/03/31 01:05:23;;;;;;;36.05;18.15;;;10.90;56.70;10.00;102359.00;;;;4895019;29;19965;-79
2021/03/31 01:07:49;;;;;;;44.40;19.88;;;10.90;56.90;9.90;102353.00;;;;4919279;29;20054;-79
2021/03/31 01:10:18;;;;;;;35.67;18.13;;;10.80;56.50;9.90;102365.00;;;;4919361;29;20054;-79
2021/03/31 01:13:22;;;;;;;35.20;18.15;;;10.80;57.80;9.80;102360.00;;;;4902385;29;20130;-79
2021/03/31 01:15:53;;;;;;;36.78;19.35;;;10.70;57.40;9.70;102356.00;;;;4921354;28;20055;-79
2021/03/31 01:18:48;;;;;;;34.17;17.08;;;10.60;58.40;9.60;102351.00;;;;4921375;28;20055;-79
2021/03/31 01:22:14;;;;;;;36.17;18.80;;;10.60;57.20;9.60;102350.00;;;;4902571;29;20088;-79
2021/03/31 01:25:07;;;;;;;30.52;16.02;;;10.50;57.30;9.50;102343.00;;;;4934899;28;20055;-78
2021/03/31 01:28:10;;;;;;;35.17;18.02;;;10.50;58.50;9.40;102345.00;;;;4915507;28;20106;-79
2021/03/31 01:30:36;;;;;;;31.20;15.75;;;;;9.50;102342.00;;;;4935486;28;20126;-79
2021/03/31 01:33:32;;;;;;;33.20;17.25;;;10.30;58.70;9.40;102342.00;;;;4938454;28;20154;-79
2021/03/31 01:36:00;;;;;;;31.38;17.05;;;10.30;58.20;9.30;102330.00;;;;4937510;28;20051;-80
2021/03/31 01:38:28;;;;;;;32.13;16.85;;;10.30;57.80;9.30;102332.00;;;;4918418;29;20039;-79
2021/03/31 01:40:56;;;;;;;37.85;18.42;;;10.20;58.20;9.30;102332.00;;;;4937299;28;20050;-79
2021/03/31 01:43:24;;;;;;;36.70;18.98;;;10.20;59.50;9.20;102332.00;;;;4905025;28;20114;-79
2021/03/31 01:45:56;;;;;;;37.63;19.02;;;10.10;59.60;9.20;102329.00;;;;4935438;28;20081;-80
2021/03/31 01:48:30;;;;;;;31.95;16.70;;;10.10;59.20;9.20;102327.00;;;;4937838;28;20063;-78
2021/03/31 01:51:03;;;;;;;36.17;18.20;;;10.10;59.70;9.20;102318.00;;;;4935572;28;20095;-78
2021/03/31 01:53:31;;;;;;;35.20;19.05;;;10.10;59.70;9.10;102323.00;;;;4930121;28;20094;-79
2021/03/31 01:55:59;;;;;;;34.78;17.77;;;10.10;60.90;9.10;102328.00;;;;4932328;28;20110;-79
2021/03/31 01:58:26;;;;;;;35.25;18.75;;;10.00;59.30;9.10;102334.00;;;;4920166;28;20047;-79
2021/03/31 02:00:54;;;;;;;36.75;18.58;;;10.80;60.40;9.00;102320.00;;;;4915549;28;20899;-79
2021/03/31 02:03:22;;;;;;;32.58;17.10;;;;;9.00;102321.00;;;;4903904;29;20070;-79
2021/03/31 02:05:48;;;;;;;34.38;18.38;;;9.90;59.40;8.90;102322.00;;;;4911480;29;20043;-79
2021/03/31 02:08:15;;;;;;;33.40;17.05;;;9.90;60.80;8.90;102308.00;;;;4931956;28;20536;-80
2021/03/31 02:10:44;;;;;;;34.58;17.00;;;9.90;60.50;8.90;102298.00;;;;4921553;28;20047;-78
2021/03/31 02:13:12;;;;;;;31.08;16.13;;;9.80;60.00;8.90;102302.00;;;;4903037;29;20572;-78
2021/03/31 02:15:40;;;;;;;30.90;15.18;;;9.80;60.40;8.90;102299.00;;;;4917914;28;20114;-78
2021/03/31 02:18:14;;;;;;;35.95;17.08;;;9.80;60.10;8.80;102298.00;;;;4931176;28;20119;-78
2021/03/31 02:20:40;;;;;;;29.90;15.75;;;9.80;58.50;8.80;102307.00;;;;4915619;29;20052;-78
2021/03/31 02:23:07;;;;;;;33.58;15.73;;;9.80;59.80;8.80;102289.00;;;;4906209;29;20127;-78
2021/03/31 02:25:34;;;;;;;30.90;15.02;;;9.80;60.00;8.90;102299.00;;;;4908662;28;20143;-79
2021/03/31 02:28:01;;;;;;;26.92;14.02;;;9.80;58.20;8.90;102299.00;;;;4925383;28;20156;-78
2021/03/31 02:30:29;;;;;;;30.88;15.52;;;9.80;58.30;9.00;102295.00;;;;4935827;28;20635;-78
2021/03/31 02:33:03;;;;;;;30.58;15.95;;;9.80;58.30;9.00;102293.00;;;;4945619;28;20595;-78
2021/03/31 02:35:31;;;;;;;31.05;15.63;;;9.90;59.50;9.00;102300.00;;;;4923319;28;20042;-79
2021/03/31 02:38:02;;;;;;;27.45;15.57;;;9.90;57.90;9.00;102282.00;;;;4924558;29;20081;-79
2021/03/31 02:40:29;;;;;;;25.95;14.25;;;10.00;57.70;9.10;102284.00;;;;4937318;28;20048;-79
2021/03/31 02:42:59;;;;;;;24.70;13.48;;;10.10;57.40;9.20;102280.00;;;;4921785;28;20058;-79
2021/03/31 02:45:26;;;;;;;27.20;13.38;;;10.10;57.00;9.20;102284.00;;;;4935770;28;20094;-79
2021/03/31 02:47:53;;;;;;;28.00;14.00;;;10.10;57.70;9.30;102280.00;;;;4920433;28;20069;-78
2021/03/31 02:50:23;;;;;;;24.55;12.80;;;10.10;57.80;9.30;102284.00;;;;4925882;29;20316;-78
2021/03/31 02:52:51;;;;;;;23.40;12.68;;;10.20;56.70;9.40;102276.00;;;;4921389;28;20178;-79
2021/03/31 02:55:18;;;;;;;22.77;11.98;;;10.30;57.10;9.50;102280.00;;;;4916497;28;20043;-78
2021/03/31 02:57:44;;;;;;;;;;;10.30;56.40;9.40;102273.00;;;;4938217;28;20110;-78
2021/03/31 03:00:12;;;;;;;24.42;11.93;;;10.40;55.60;9.50;102279.00;;;;4936535;28;20025;-78
2021/03/31 03:02:43;;;;;;;24.73;12.77;;;10.40;55.30;9.60;102269.00;;;;4938457;28;20150;-78
2021/03/31 03:05:12;;;;;;;23.38;12.02;;;10.50;55.50;9.70;102274.00;;;;4940253;28;20045;-79
2021/03/31 03:07:39;;;;;;;27.92;12.40;;;10.50;54.80;9.80;102272.00;;;;4919733;28;20039;-79
2021/03/31 03:10:07;;;;;;;23.65;12.55;;;10.70;54.90;9.90;102268.00;;;;4920758;28;21267;-79
2021/03/31 03:12:42;;;;;;;30.08;12.20;;;10.70;54.70;9.90;102270.00;;;;4908199;28;20086;-79
2021/03/31 03:15:12;;;;;;;26.35;11.95;;;10.80;54.60;10.00;102276.00;;;;4909147;28;20058;-78
2021/03/31 03:17:39;;;;;;;24.13;11.80;;;10.80;54.40;10.10;102278.00;;;;4919000;28;20123;-80
2021/03/31 03:20:09;;;;;;;24.20;12.45;;;10.90;54.20;10.10;102280.00;;;;4942825;28;20035;-78
2021/03/31 03:22:37;;;;;;;22.95;12.27;;;10.90;54.20;10.10;102278.00;;;;4936946;28;20050;-79
2021/03/31 03:25:05;;;;;;;20.33;10.98;;;10.90;53.80;10.20;102264.00;;;;4923744;29;20152;-79
2021/03/31 03:27:32;;;;;;;22.98;10.60;;;11.00;53.90;10.20;102271.00;;;;4939605;28;20085;-79
2021/03/31 03:29:59;;;;;;;21.23;11.30;;;11.00;53.90;10.20;102269.00;;;;4918840;29;20039;-79
2021/03/31 03:32:25;;;;;;;21.55;11.00;;;11.00;53.80;10.20;102268.00;;;;4908629;29;20078;-79
2021/03/31 03:34:54;;;;;;;23.52;11.73;;;11.00;53.80;10.10;102255.00;;;;4936538;28;20150;-84
2021/03/31 03:37:21;;;;;;;25.83;11.45;;;11.00;54.20;10.10;102263.00;;;;4905804;29;20058;-80
2021/03/31 03:39:48;;;;;;;23.08;10.77;;;11.00;53.90;10.10;102261.00;;;;4937426;28;20039;-79
2021/03/31 03:42:14;;;;;;;22.48;10.18;;;10.90;53.90;10.10;102251.00;;;;4907247;29;20043;-81
2021/03/31 03:44:40;;;;;;;21.23;10.85;;;10.90;53.70;10.10;102258.00;;;;4921165;29;20046;-79
2021/03/31 03:47:06;;;;;;;17.30;10.10;;;10.90;53.80;10.10;102262.00;;;;4939058;28;20556;-80
2021/03/31 03:49:39;;;;;;;20.05;10.70;;;10.90;53.80;10.10;102261.00;;;;4908642;28;20078;-78
2021/03/31 03:52:09;;;;;;;22.58;10.50;;;11.00;53.80;10.10;102257.00;;;;4941263;28;20047;-77
2021/03/31 03:54:35;;;;;;;24.90;11.25;;;11.00;54.60;10.10;102258.00;;;;4900962;28;20044;-78
2021/03/31 03:57:01;;;;;;;22.52;12.00;;;11.00;53.90;10.20;102265.00;;;;4911759;29;20078;-78
2021/03/31 03:59:29;;;;;;;20.50;10.95;;;11.00;53.60;10.10;102265.00;;;;4923961;29;20059;-79
2021/03/31 04:01:56;;;;;;;28.42;12.13;;;11.00;53.70;10.10;102274.00;;;;4931498;29;20169;-79
2021/03/31 04:04:23;;;;;;;24.38;11.50;;;10.90;53.70;10.10;102262.00;;;;4926693;28;20047;-79
2021/03/31 04:06:49;;;;;;;;;;;11.00;53.90;10.00;102262.00;;;;4958988;28;20043;-78
2021/03/31 04:09:15;;;;;;;22.55;11.07;;;10.90;53.80;10.10;102258.00;;;;4962556;28;19990;-79
2021/03/31 04:11:44;;;;;;;18.13;10.45;;;10.90;53.70;10.10;102269.00;;;;4959039;28;20038;-78
2021/03/31 04:14:11;;;;;;;24.25;11.13;;;10.90;53.70;10.10;102247.00;;;;4938502;28;20464;-78
2021/03/31 04:16:41;;;;;;;21.30;11.55;;;10.90;53.70;10.00;102252.00;;;;4938232;28;20073;-79
2021/03/31 04:19:15;;;;;;;26.13;11.50;;;10.90;54.70;10.00;102254.00;;;;4938047;28;20043;-79
2021/03/31 04:21:41;;;;;;;22.75;11.48;;;10.80;54.20;10.00;102256.00;;;;4921509;28;20075;-78
2021/03/31 04:24:13;;;;;;;18.83;10.35;;;10.90;54.50;9.90;102256.00;;;;4936601;28;20756;-79
2021/03/31 04:26:40;;;;;;;18.40;10.18;;;10.80;54.30;9.90;102254.00;;;;4934554;28;20494;-78
2021/03/31 04:29:11;;;;;;;20.45;10.57;;;10.80;54.50;9.90;102255.00;;;;4938308;28;20056;-79
2021/03/31 04:31:38;;;;;;;22.70;11.35;;;10.70;54.50;9.80;102252.00;;;;4932208;28;20051;-78
2021/03/31 04:34:06;;;;;;;19.38;11.10;;;10.70;55.30;9.70;102250.00;;;;4934767;28;20576;-78
2021/03/31 04:36:33;;;;;;;18.40;10.55;;;10.70;55.70;9.70;102240.00;;;;4937148;28;20184;-78
2021/03/31 04:39:02;;;;;;;22.30;10.30;;;10.60;54.60;9.70;102244.00;;;;4935328;28;20544;-78
2021/03/31 04:41:27;;;;;;;18.42;10.40;;;10.60;55.70;9.70;102241.00;;;;4935445;28;20302;-78
2021/03/31 04:43:53;;;;;;;18.90;10.85;;;10.50;55.00;9.60;102245.00;;;;4920217;28;20035;-77
2021/03/31 04:46:19;;;;;;;16.77;10.52;;;10.50;54.90;9.60;102245.00;;;;4934749;28;20082;-78
2021/03/31 04:48:45;;;;;;;18.75;10.77;;;10.50;55.00;9.60;102253.00;;;;4917239;29;20043;-78
2021/03/31 04:51:11;;;;;;;18.67;10.13;;;10.40;55.40;9.50;102245.00;;;;4934297;28;20071;-78
2021/03/31 04:53:37;;;;;;;20.80;10.88;;;10.40;55.60;9.50;102243.00;;;;4936859;28;20110;-78
2021/03/31 04:56:03;;;;;;;21.38;10.57;;;10.40;55.80;9.40;102248.00;;;;4935547;28;20066;-79
2021/03/31 04:58:29;;;;;;;19.37;10.83;;;10.40;56.40;9.40;102242.00;;;;4934947;28;20132;-78
2021/03/31 05:00:55;;;;;;;21.48;10.73;;;10.30;55.90;9.40;102242.00;;;;4925387;28;20291;-78
2021/03/31 05:03:21;;;;;;;18.55;10.55;;;10.20;56.30;9.30;102237.00;;;;4933061;28;20063;-79
2021/03/31 05:05:47;;;;;;;18.67;9.65;;;10.20;55.80;9.30;102243.00;;;;4934147;28;20486;-79
2021/03/31 05:08:13;;;;;;;20.92;10.15;;;10.20;55.90;9.20;102243.00;;;;4935311;28;20058;-79
2021/03/31 05:10:39;;;;;;;20.17;11.15;;;10.20;56.10;9.20;102230.00;;;;4936449;28;20541;-79
2021/03/31 05:13:05;;;;;;;21.08;10.50;;;10.20;57.00;9.20;102233.00;;;;4921388;28;20039;-78
2021/03/31 05:15:31;;;;;;;21.35;10.50;;;10.10;56.30;9.10;102237.00;;;;4924313;28;20079;-79
2021/03/31 05:17:57;;;;;;;18.67;9.63;;;10.00;56.30;9.10;102233.00;;;;4918896;29;20184;-78
2021/03/31 05:20:23;;;;;;;24.17;10.10;;;10.30;57.20;9.10;102232.00;;;;4933077;28;20051;-78
2021/03/31 05:22:50;;;;;;;18.05;9.25;;;10.00;56.90;9.10;102233.00;;;;4920902;28;20137;-78
2021/03/31 05:25:17;;;;;;;16.90;9.75;;;10.00;57.00;9.10;102230.00;;;;4932128;28;20055;-79
2021/03/31 05:27:43;;;;;;;23.17;10.23;;;10.00;57.40;9.10;102233.00;;;;4936157;28;20047;-79
2021/03/31 05:30:10;;;;;;;17.98;8.82;;;10.00;57.10;9.10;102230.00;;;;4933864;28;20047;-79
2021/03/31 05:32:36;;;;;;;;;;;10.00;56.60;9.00;102234.00;;;;4918995;28;20679;-77
2021/03/31 05:35:05;;;;;;;19.02;8.63;;;9.90;56.50;9.00;102242.00;;;;4934823;28;19969;-77
2021/03/31 05:37:31;;;;;;;18.67;8.98;;;10.00;56.90;9.10;102234.00;;;;4920577;28;20123;-77
2021/03/31 05:39:57;;;;;;;17.75;9.02;;;10.00;57.30;9.10;102227.00;;;;4933117;28;20341;-78
2021/03/31 05:42:23;;;;;;;17.58;8.73;;;9.90;56.60;9.10;102231.00;;;;4918898;28;20540;-78
2021/03/31 05:44:50;;;;;;;16.08;9.30;;;10.00;57.40;9.10;102232.00;;;;4936044;28;20047;-77
2021/03/31 05:47:28;;;;;;;18.73;9.18;;;10.00;57.40;9.10;102231.00;;;;4916124;29;20502;-77
2021/03/31 05:49:55;;;;;;;17.75;8.35;;;10.00;57.40;9.10;102220.00;;;;4921165;29;20051;-77
2021/03/31 05:52:23;;;;;;;18.50;8.90;;;10.00;56.90;9.20;102219.00;;;;4931419;28;20055;-77
2021/03/31 05:54:49;;;;;;;19.27;9.02;;;10.10;57.10;9.20;102215.00;;;;4937799;28;20059;-77
2021/03/31 05:57:20;;;;;;;18.85;9.00;;;10.10;57.40;9.20;102221.00;;;;4931044;28;20501;-78
2021/03/31 05:59:46;;;;;;;21.50;9.43;;;10.10;57.40;9.30;102225.00;;;;4903753;28;20047;-77
2021/03/31 06:02:14;;;;;;;20.17;8.93;;;10.10;57.40;9.30;102209.00;;;;4917721;28;20043;-77
2021/03/31 06:04:42;;;;;;;19.05;8.55;;;10.20;57.50;9.40;102213.00;;;;4931521;28;20134;-77
2021/03/31 06:07:09;;;;;;;25.23;9.13;;;10.20;57.50;9.50;102217.00;;;;4891247;29;20094;-77
2021/03/31 06:09:35;;;;;;;17.33;8.75;;;10.30;56.40;9.60;102214.00;;;;4928909;28;20555;-77
2021/03/31 06:12:02;;;;;;;16.65;8.18;;;10.40;57.00;9.60;102213.00;;;;4936265;28;20429;-76
2021/03/31 06:14:34;;;;;;;14.23;7.22;;;10.50;56.60;9.70;102221.00;;;;4936857;28;20070;-78
2021/03/31 06:17:13;;;;;;;19.15;8.70;;;10.50;56.80;9.70;102215.00;;;;4906565;29;20138;-77
2021/03/31 06:19:42;;;;;;;17.88;9.23;;;10.50;57.10;9.80;102231.00;;;;4948115;28;20052;-77
2021/03/31 06:22:30;;;;;;;16.50;9.23;;;10.60;56.20;9.80;102216.00;;;;4927082;29;20051;-76
2021/03/31 06:25:12;;;;;;;14.40;8.50;;;10.70;56.10;9.90;102224.00;;;;4949935;28;20727;-78
2021/03/31 06:27:38;;;;;;;16.23;9.20;;;10.80;56.00;10.00;102238.00;;;;4916029;28;20182;-77
2021/03/31 06:30:05;;;;;;;18.30;9.32;;;10.80;56.70;10.00;102220.00;;;;4929908;29;20126;-78
2021/03/31 06:32:38;;;;;;;17.48;9.25;;;10.80;56.60;10.10;102225.00;;;;4953008;28;20119;-77
2021/03/31 06:35:06;;;;;;;19.40;8.85;;;10.90;55.80;10.20;102224.00;;;;4956531;28;20031;-77
2021/03/31 06:37:37;;;;;;;18.40;8.73;;;11.00;56.10;10.30;102223.00;;;;4938201;28;20047;-77
2021/03/31 06:40:08;;;;;;;17.20;9.32;;;11.10;56.10;10.40;102221.00;;;;4957595;28;20051;-75
2021/03/31 06:42:43;;;;;;;17.13;8.57;;;11.20;55.80;10.50;102219.00;;;;4942013;28;20046;-77
2021/03/31 06:45:20;;;;;;;19.92;9.50;;;11.30;55.50;10.70;102230.00;;;;4943431;28;20063;-77
2021/03/31 06:50:17;;;;;;;16.20;8.75;;;11.50;55.40;10.90;102229.00;;;;4914135;28;20676;-75
2021/03/31 06:52:56;;;;;;;17.35;9.73;;;11.70;54.90;11.00;102212.00;;;;4910923;29;20174;-76
2021/03/31 06:55:24;;;;;;;16.42;9.93;;;11.70;55.10;11.20;102205.00;;;;4924222;28;20066;-77
2021/03/31 06:58:04;;;;;;;18.15;9.32;;;11.90;55.00;11.30;102210.00;;;;4937813;28;20057;-77
2021/03/31 07:00:33;;;;;;;18.00;9.60;;;11.90;54.50;11.40;102216.00;;;;4903040;28;20036;-75
2021/03/31 07:03:07;;;;;;;16.58;9.32;;;12.10;54.30;11.50;102214.00;;;;4934361;28;20393;-77
2021/03/31 07:05:42;;;;;;;21.67;9.98;;;12.20;54.40;11.60;102211.00;;;;4935490;28;20138;-76
2021/03/31 07:08:12;;;;;;;17.80;8.93;;;12.30;54.10;11.70;102220.00;;;;4915096;29;20046;-77
2021/03/31 07:10:54;;;;;;;20.70;9.85;;;12.40;54.10;11.80;102218.00;;;;4937775;28;20074;-78
2021/03/31 07:13:33;;;;;;;19.30;9.43;;;12.50;53.80;11.90;102216.00;;;;4921990;28;20063;-77
2021/03/31 07:16:05;;;;;;;15.10;8.65;;;12.60;53.90;12.00;102218.00;;;;4920158;29;20085;-77
2021/03/31 07:18:34;;;;;;;18.00;8.55;;;12.70;53.50;12.10;102212.00;;;;4922600;28;20055;-77
2021/03/31 07:21:00;;;;;;;19.60;9.15;;;12.80;53.40;12.20;102207.00;;;;4905304;28;20099;-76
2021/03/31 07:23:29;;;;;;;16.40;9.27;;;12.90;53.30;12.30;102216.00;;;;4937468;28;20447;-77
2021/03/31 07:25:57;;;;;;;19.30;9.23;;;12.90;53.30;12.40;102224.00;;;;4889967;29;20126;-78
2021/03/31 07:28:32;;;;;;;;;;;13.00;52.80;12.50;102209.00;;;;4921824;29;20074;-78
2021/03/31 07:31:00;;;;;;;17.48;9.35;;;13.10;53.40;12.60;102224.00;;;;4933967;28;19927;-77
2021/03/31 07:33:34;;;;;;;18.98;10.45;;;13.20;53.20;12.70;102220.00;;;;4921971;28;20055;-78
2021/03/31 07:36:11;;;;;;;16.33;9.40;;;13.30;52.80;12.80;102230.00;;;;4913527;28;20525;-79
2021/03/31 07:38:38;;;;;;;;;;;13.40;52.10;12.80;102222.00;;;;4934791;28;20160;-76
2021/03/31 07:41:05;;;;;;;18.15;10.00;;;13.50;52.70;13.00;102223.00;;;;4936122;28;20369;-76
2021/03/31 07:43:37;;;;;;;23.38;10.57;;;13.60;53.00;13.10;102224.00;;;;4935991;28;20039;-76
2021/03/31 07:46:16;;;;;;;16.00;9.35;;;13.70;52.80;13.20;102223.00;;;;4937396;28;20111;-77
2021/03/31 07:48:44;;;;;;;20.58;10.25;;;13.80;51.90;13.30;102222.00;;;;4917860;28;20537;-77
2021/03/31 07:51:30;;;;;;;21.08;10.98;;;13.90;52.30;13.40;102227.00;;;;4939061;28;20050;-78
2021/03/31 07:54:00;;;;;;;23.55;10.65;;;14.00;52.20;13.50;102224.00;;;;4919223;28;20051;-78
2021/03/31 07:56:36;;;;;;;23.30;11.38;;;14.10;52.00;13.60;102225.00;;;;4936081;28;20047;-77
2021/03/31 07:59:09;;;;;;;19.85;11.77;;;14.20;52.40;13.70;102223.00;;;;4938620;28;20502;-78
2021/03/31 08:01:58;;;;;;;21.45;11.38;;;14.30;52.30;13.80;102214.00;;;;4936448;28;20564;-82
2021/03/31 08:04:25;;;;;;;;;;;14.40;51.50;13.90;102216.00;;;;4919990;29;20051;-78
2021/03/31 08:06:56;;;;;;;19.30;10.00;;;14.60;52.30;14.10;102215.00;;;;4917442;29;20405;-78
2021/03/31 08:09:30;;;;;;;17.23;11.45;;;;;14.30;102223.00;;;;4916957;28;20571;-78
2021/03/31 08:12:06;;;;;;;22.27;11.43;;;14.80;51.40;14.40;102225.00;;;;4936542;28;20153;-77
2021/03/31 08:14:35;;;;;;;20.83;11.73;;;15.00;51.40;14.50;102229.00;;;;4935208;28;20051;-78
2021/03/31 08:17:06;;;;;;;19.92;11.05;;;15.00;51.30;14.70;102224.00;;;;4938937;28;20080;-77
2021/03/31 08:19:49;;;;;;;17.20;10.38;;;15.20;51.30;14.80;102230.00;;;;4918717;29;20498;-77
2021/03/31 08:22:24;;;;;;;21.83;11.55;;;15.30;50.90;14.90;102225.00;;;;4937026;28;20113;-78
2021/03/31 08:24:57;;;;;;;19.52;10.95;;;15.50;51.10;15.10;102222.00;;;;4938078;28;20449;-76
2021/03/31 08:27:24;;;;;;;17.58;10.90;;;15.50;50.40;15.20;102226.00;;;;4936976;28;20058;-77
2021/03/31 08:29:54;;;;;;;26.05;11.20;;;15.70;50.90;15.40;102222.00;;;;4938277;28;20062;-76
2021/03/31 08:32:23;;;;;;;21.75;11.02;;;15.80;50.80;15.50;102222.00;;;;4935946;28;20541;-77
2021/03/31 08:34:49;;;;;;;21.13;10.60;;;16.00;50.70;15.60;102232.00;;;;4907307;29;20134;-77
2021/03/31 08:37:30;;;;;;;15.93;11.35;;;16.00;51.60;15.70;102226.00;;;;4920513;29;20666;-78
2021/03/31 08:40:06;;;;;;;18.35;10.93;;;16.20;50.30;15.90;102230.00;;;;4934137;28;20726;-78
2021/03/31 08:42:33;;;;;;;19.55;11.70;;;16.40;50.50;16.00;102226.00;;;;4936340;28;20058;-78
2021/03/31 08:45:05;;;;;;;19.90;11.45;;;16.80;50.20;16.10;102234.00;;;;4905288;29;20401;-78
2021/03/31 08:47:34;;;;;;;16.63;11.15;;;16.50;50.00;16.20;102238.00;;;;4934202;28;20050;-78
2021/03/31 08:50:08;;;;;;;18.55;11.63;;;16.70;50.10;16.30;102229.00;;;;4921735;28;20055;-78
2021/03/31 08:52:38;;;;;;;17.75;11.98;;;16.70;48.80;16.40;102233.00;;;;4938857;28;20042;-78
2021/03/31 08:55:10;;;;;;;17.50;10.77;;;16.80;49.40;16.50;102224.00;;;;4938673;28;20044;-78
2021/03/31 08:57:36;;;;;;;16.05;11.27;;;17.00;49.70;16.70;102223.00;;;;4916964;29;20058;-77
2021/03/31 09:00:08;;;;;;;21.67;11.77;;;17.40;49.30;16.80;102220.00;;;;4935920;28;20043;-78
2021/03/31 09:02:38;;;;;;;21.02;11.77;;;17.20;48.30;16.90;102213.00;;;;4920145;29;20109;-78
2021/03/31 09:05:06;;;;;;;17.10;11.43;;;17.30;49.30;17.00;102223.00;;;;4936428;28;20131;-78
2021/03/31 09:07:32;;;;;;;20.67;11.43;;;17.40;48.50;17.10;102212.00;;;;4934428;28;20584;-78
2021/03/31 09:09:59;;;;;;;18.08;11.05;;;17.50;48.40;17.30;102204.00;;;;4921828;29;20035;-79
2021/03/31 09:12:28;;;;;;;25.98;12.20;;;17.60;47.50;17.30;102207.00;;;;4919167;29;20058;-77
2021/03/31 09:14:57;;;;;;;21.20;10.85;;;17.80;48.60;17.40;102206.00;;;;4905747;29;20075;-78
2021/03/31 09:17:34;;;;;;;21.45;11.52;;;17.80;47.80;17.50;102206.00;;;;4924328;28;20522;-79
2021/03/31 09:20:09;;;;;;;16.88;11.48;;;17.90;49.50;17.60;102208.00;;;;4917611;28;20752;-78
2021/03/31 09:22:36;;;;;;;23.40;11.93;;;18.10;47.90;17.70;102209.00;;;;4913607;28;20051;-79
2021/03/31 09:25:13;;;;;;;20.75;11.75;;;18.20;47.90;17.80;102201.00;;;;4933990;28;20039;-78
2021/03/31 09:27:39;;;;;;;17.70;11.80;;;18.20;47.90;18.00;102201.00;;;;4935981;28;20231;-78
2021/03/31 09:30:11;;;;;;;20.33;12.00;;;18.10;48.00;18.00;102209.00;;;;4916939;29;20043;-78
2021/03/31 09:32:55;;;;;;;24.45;12.98;;;18.50;46.80;18.20;102202.00;;;;4930521;28;20481;-78
2021/03/31 09:35:21;;;;;;;18.63;12.68;;;18.60;47.60;18.30;102203.00;;;;4936791;28;20051;-78
2021/03/31 09:37:50;;;;;;;22.50;12.50;;;18.60;47.50;18.40;102202.00;;;;4935903;28;20121;-78
2021/03/31 09:40:26;;;;;;;19.25;12.13;;;18.90;47.90;18.50;102204.00;;;;4935048;28;20043;-78
2021/03/31 09:43:04;;;;;;;27.77;13.05;;;18.90;46.80;18.60;102201.00;;;;4916549;28;20098;-78
2021/03/31 09:45:32;;;;;;;18.55;11.95;;;19.00;47.50;18.70;102210.00;;;;4917799;28;20071;-78
2021/03/31 09:47:59;;;;;;;21.33;12.48;;;19.10;47.40;18.80;102196.00;;;;4936840;28;20497;-78
2021/03/31 09:50:28;;;;;;;20.38;12.55;;;19.20;47.60;18.90;102201.00;;;;4931416;28;20112;-78
2021/03/31 09:52:56;;;;;;;25.45;13.77;;;19.30;47.50;19.00;102204.00;;;;4932546;28;20091;-78
2021/03/31 09:55:23;;;;;;;27.67;12.98;;;19.50;47.20;19.10;102194.00;;;;4933456;28;20051;-78
2021/03/31 09:57:51;;;;;;;20.77;14.10;;;19.50;47.20;19.20;102194.00;;;;4916512;29;20051;-79
2021/03/31 10:00:19;;;;;;;25.67;14.15;;;19.60;46.70;19.30;102187.00;;;;4935334;28;20050;-78
2021/03/31 10:02:46;;;;;;;20.45;14.30;;;19.70;46.70;19.40;102187.00;;;;4904068;29;20047;-79
2021/03/31 10:05:18;;;;;;;22.98;14.65;;;19.80;45.70;19.60;102185.00;;;;4922903;28;20406;-77
2021/03/31 10:08:06;;;;;;;22.55;14.00;;;20.00;45.50;19.70;102186.00;;;;4932008;28;20073;-80
2021/03/31 10:10:41;;;;;;;;;;;20.10;45.70;19.70;102181.00;;;;4932626;28;20437;-78
2021/03/31 10:13:09;;;;;;;25.52;14.68;;;20.20;45.90;19.90;102183.00;;;;4891862;29;747386;-78
2021/03/31 10:15:36;;;;;;;21.63;14.50;;;20.30;45.10;20.10;102171.00;;;;4918477;28;20171;-80
2021/03/31 10:18:03;;;;;;;22.88;14.45;;;20.50;45.10;20.20;102154.00;;;;4919806;29;20085;-80
2021/03/31 10:20:34;;;;;;;21.20;14.32;;;20.50;44.90;20.40;102174.00;;;;4935180;28;20035;-79
2021/03/31 10:23:01;;;;;;;21.20;14.93;;;20.70;44.50;20.50;102173.00;;;;4934948;28;20054;-78
2021/03/31 10:25:28;;;;;;;23.10;15.38;;;20.90;44.70;20.60;102161.00;;;;4935214;28;20078;-77
2021/03/31 10:27:55;;;;;;;25.55;15.70;;;21.10;44.80;20.80;102166.00;;;;4889264;29;20040;-79
2021/03/31 10:30:32;;;;;;;;;;;21.20;43.60;20.80;102161.00;;;;4936105;28;20039;-79
2021/03/31 10:33:00;;;;;;;22.30;14.52;;;21.30;44.60;21.00;102160.00;;;;4921606;28;19985;-78
2021/03/31 10:35:58;;;;;;;29.48;15.30;;;21.40;44.30;21.20;102162.00;;;;4920330;29;20047;-79
2021/03/31 10:47:14;;;;;;;22.95;15.73;;;22.00;42.20;21.70;102157.00;;;;4936746;28;20051;-79
2021/03/31 10:52:15;;;;;;;22.25;15.57;;;;;21.90;102146.00;;;;4941615;28;20047;-78
2021/03/31 10:54:41;;;;;;;28.08;14.93;;;22.20;38.80;22.00;102149.00;;;;4920603;28;20339;-78
2021/03/31 10:57:13;;;;;;;33.57;15.80;;;22.30;39.60;22.20;102151.00;;;;4937929;28;20565;-78
2021/03/31 10:59:40;;;;;;;28.27;15.60;;;22.50;38.00;22.30;102151.00;;;;4937842;28;20406;-79
2021/03/31 11:02:07;;;;;;;;;;;22.60;37.40;22.40;102147.00;;;;4944204;28;20058;-78
2021/03/31 11:04:33;;;;;;;25.45;15.48;;;22.70;40.30;22.50;102139.00;;;;4904026;28;19950;-77
2021/03/31 11:06:59;;;;;;;24.48;14.73;;;22.80;39.30;22.70;102144.00;;;;4935057;28;20051;-79
2021/03/31 11:09:28;;;;;;;24.25;15.95;;;22.90;39.20;22.80;102138.00;;;;4938019;28;20771;-78